createdAt,value
2019-03-02T00:02:08.727Z,23.87
2019-03-02T00:04:41.980Z,23.17
2019-03-02T00:07:12.540Z,22.70
2019-03-02T00:09:43.674Z,22.33
2019-03-02T00:12:14.720Z,23.80
2019-03-02T00:14:46.071Z,24.80
2019-03-02T00:17:19.038Z,23.60
2019-03-02T00:19:49.443Z,25.33
2019-03-02T00:22:20.243Z,24.20
2019-03-02T00:24:54.049Z,23.50
2019-03-02T00:27:24.566Z,25.07
2019-03-02T00:29:55.373Z,25.63
2019-03-02T00:32:26.173Z,28.47
2019-03-02T00:34:57.064Z,24.33
2019-03-02T00:37:29.587Z,25.97
2019-03-02T00:40:01.012Z,27.80
2019-03-02T00:42:31.896Z,25.13
2019-03-02T00:45:03.253Z,24.97
2019-03-02T00:47:35.268Z,26.00
2019-03-02T00:50:07.089Z,26.53
2019-03-02T00:52:37.902Z,25.63
2019-03-02T00:55:08.923Z,25.67
2019-03-02T00:57:39.791Z,25.07
2019-03-02T01:00:11.691Z,24.93
2019-03-02T01:02:43.793Z,26.57
2019-03-02T01:05:14.871Z,26.07
2019-03-02T01:07:45.787Z,25.67
2019-03-02T01:10:19.011Z,25.77
2019-03-02T01:12:49.760Z,25.07
2019-03-02T01:15:20.663Z,25.33
2019-03-02T01:17:51.530Z,26.47
2019-03-02T01:20:24.867Z,26.40
2019-03-02T01:22:55.078Z,26.67
2019-03-02T01:25:26.203Z,27.63
2019-03-02T01:27:57.327Z,25.23
2019-03-02T01:30:30.056Z,26.33
2019-03-02T01:33:01.091Z,26.27
2019-03-02T01:35:32.113Z,25.93
2019-03-02T01:38:03.056Z,26.20
2019-03-02T01:40:37.847Z,25.73
2019-03-02T01:43:08.116Z,27.07
2019-03-02T01:45:39.148Z,27.03
2019-03-02T01:48:10.240Z,26.27
2019-03-02T01:50:43.793Z,27.00
2019-03-02T01:53:13.621Z,27.40
2019-03-02T01:55:44.744Z,27.43
2019-03-02T01:58:15.867Z,26.90
2019-03-02T02:00:49.221Z,27.53
2019-03-02T02:03:19.725Z,27.70
2019-03-02T02:05:50.624Z,28.37
2019-03-02T02:08:21.973Z,27.23
2019-03-02T02:10:52.971Z,27.63
2019-03-02T02:13:23.853Z,28.37
2019-03-02T02:15:54.764Z,27.90
2019-03-02T02:18:27.802Z,28.57
2019-03-02T02:20:58.741Z,27.73
2019-03-02T02:23:29.545Z,27.17
2019-03-02T02:26:00.433Z,28.00
2019-03-02T02:28:32.259Z,27.67
2019-03-02T02:31:06.191Z,27.10
2019-03-02T02:33:42.246Z,27.37
2019-03-02T02:36:14.203Z,26.77
2019-03-02T02:38:42.604Z,26.50
2019-03-02T02:41:22.094Z,26.53
2019-03-02T02:43:46.375Z,26.73
2019-03-02T02:46:17.540Z,27.40
2019-03-02T02:48:48.349Z,26.07
2019-03-02T02:51:19.457Z,25.17
2019-03-02T02:53:50.563Z,25.57
2019-03-02T02:56:21.612Z,24.87
2019-03-02T02:58:56.203Z,26.20
2019-03-02T03:01:32.980Z,25.70
2019-03-02T03:04:00.766Z,25.60
2019-03-02T03:06:34.036Z,25.57
2019-03-02T03:09:11.637Z,24.23
2019-03-02T03:11:44.393Z,25.70
2019-03-02T03:14:19.862Z,24.77
2019-03-02T03:16:53.747Z,24.60
2019-03-02T03:19:26.086Z,24.13
2019-03-02T03:21:55.662Z,24.10
2019-03-02T03:24:26.464Z,24.50
2019-03-02T03:26:57.930Z,24.37
2019-03-02T03:29:29.309Z,25.37
2019-03-02T03:32:08.239Z,24.17
2019-03-02T03:34:33.345Z,24.93
2019-03-02T03:37:08.419Z,25.67
2019-03-02T03:39:36.859Z,28.33
2019-03-02T03:42:07.791Z,28.37
2019-03-02T03:44:38.679Z,28.03
2019-03-02T03:47:11.596Z,27.60
2019-03-02T03:49:43.125Z,28.80
2019-03-02T03:52:14.322Z,28.73
2019-03-02T03:54:46.408Z,28.20
2019-03-02T03:57:21.619Z,28.30
2019-03-02T03:59:53.619Z,28.30
2019-03-02T04:02:26.074Z,28.63
2019-03-02T04:04:56.807Z,28.77
2019-03-02T04:07:27.764Z,28.30
2019-03-02T04:09:58.601Z,26.63
2019-03-02T04:12:29.713Z,27.20
2019-03-02T04:15:01.563Z,26.43
2019-03-02T04:17:39.151Z,27.30
2019-03-02T04:20:12.586Z,25.23
2019-03-02T04:22:44.615Z,25.83
2019-03-02T04:25:17.836Z,25.33
2019-03-02T04:27:54.039Z,23.77
2019-03-02T04:30:21.415Z,23.23
2019-03-02T04:32:52.682Z,23.43
2019-03-02T04:35:23.479Z,23.37
2019-03-02T04:37:56.550Z,25.00
2019-03-02T04:40:27.866Z,23.90
2019-03-02T04:42:59.783Z,24.40
2019-03-02T04:45:30.805Z,23.00
2019-03-02T04:48:03.302Z,22.70
2019-03-02T04:50:34.320Z,22.73
2019-03-02T04:53:05.145Z,22.93
2019-03-02T04:55:36.742Z,22.63
2019-03-02T04:58:08.565Z,23.70
2019-03-02T05:00:40.477Z,22.93
2019-03-02T05:03:11.680Z,22.50
2019-03-02T05:05:43.425Z,21.70
2019-03-02T05:08:14.566Z,22.50
2019-03-02T05:10:45.358Z,23.50
2019-03-02T05:13:16.216Z,24.17
2019-03-02T05:15:48.990Z,24.03
2019-03-02T05:18:19.790Z,24.13
2019-03-02T05:20:50.712Z,24.27
2019-03-02T05:23:22.009Z,24.93
2019-03-02T05:25:54.598Z,25.10
2019-03-02T05:28:33.890Z,24.97
2019-03-02T05:31:06.850Z,25.97
2019-03-02T05:33:38.330Z,26.33
2019-03-02T05:36:09.204Z,26.90
2019-03-02T05:38:40.020Z,26.97
2019-03-02T05:41:11.200Z,27.40
2019-03-02T05:43:42.088Z,27.20
2019-03-02T05:46:14.237Z,27.50
2019-03-02T05:48:45.613Z,27.30
2019-03-02T05:51:16.490Z,29.23
2019-03-02T05:53:47.587Z,28.97
2019-03-02T05:56:18.396Z,29.00
2019-03-02T05:58:51.111Z,28.63
2019-03-02T06:01:22.354Z,29.60
2019-03-02T06:03:53.183Z,30.10
2019-03-02T06:06:24.855Z,30.07
2019-03-02T06:08:55.671Z,30.73
2019-03-02T06:11:26.465Z,31.63
2019-03-02T06:13:57.728Z,30.73
2019-03-02T06:16:28.733Z,31.57
2019-03-02T06:18:59.855Z,32.47
2019-03-02T06:21:31.210Z,32.40
2019-03-02T06:24:05.395Z,31.17
2019-03-02T06:26:36.617Z,30.67
2019-03-02T06:29:07.649Z,31.63
2019-03-02T06:31:38.448Z,31.50
2019-03-02T06:34:09.663Z,31.70
2019-03-02T06:36:44.367Z,31.37
2019-03-02T06:39:13.829Z,31.97
2019-03-02T06:41:44.934Z,30.73
2019-03-02T06:44:16.142Z,31.63
2019-03-02T06:46:46.939Z,31.23
2019-03-02T06:49:19.984Z,32.10
2019-03-02T06:51:51.091Z,30.50
2019-03-02T06:54:22.264Z,30.70
2019-03-02T06:56:57.830Z,31.50
2019-03-02T06:59:26.115Z,31.27
2019-03-02T07:01:59.750Z,32.10
2019-03-02T07:04:30.948Z,31.30
2019-03-02T07:07:01.866Z,31.80
2019-03-02T07:09:32.685Z,30.93
2019-03-02T07:12:05.958Z,30.07
2019-03-02T07:14:36.317Z,30.67
2019-03-02T07:17:07.683Z,32.53
2019-03-02T07:19:52.005Z,30.63
2019-03-02T07:22:23.640Z,31.43
2019-03-02T07:24:54.681Z,31.07
2019-03-02T07:27:26.393Z,32.03
2019-03-02T07:29:58.556Z,31.20
2019-03-02T07:32:29.478Z,31.57
2019-03-02T07:35:00.812Z,32.57
2019-03-02T07:37:32.065Z,30.83
2019-03-02T07:40:05.644Z,32.27
2019-03-02T07:42:35.520Z,32.27
2019-03-02T07:45:07.739Z,31.67
2019-03-02T07:47:38.896Z,33.67
2019-03-02T07:50:10.167Z,33.37
2019-03-02T07:52:42.282Z,31.73
2019-03-02T07:55:14.646Z,32.93
2019-03-02T07:57:45.929Z,33.63
2019-03-02T08:00:18.707Z,33.97
2019-03-02T08:02:49.910Z,32.27
2019-03-02T08:05:20.889Z,32.33
2019-03-02T08:07:51.787Z,32.37
2019-03-02T08:10:23.959Z,33.03
2019-03-02T08:12:57.795Z,32.33
2019-03-02T08:15:27.679Z,31.90
2019-03-02T08:17:58.725Z,32.23
2019-03-02T08:20:29.896Z,32.03
2019-03-02T08:23:01.035Z,31.93
2019-03-02T08:25:32.058Z,34.20
2019-03-02T08:28:02.890Z,32.90
2019-03-02T08:30:34.309Z,31.53
2019-03-02T08:33:05.248Z,34.07
2019-03-02T08:35:36.047Z,32.13
2019-03-02T08:38:06.943Z,33.30
2019-03-02T08:40:38.197Z,32.33
2019-03-02T08:43:09.108Z,32.60
2019-03-02T08:45:40.233Z,33.53
2019-03-02T08:48:11.363Z,34.40
2019-03-02T08:50:42.512Z,34.43
2019-03-02T08:53:13.800Z,34.87
2019-03-02T08:55:45.201Z,34.43
2019-03-02T08:58:16.521Z,34.43
2019-03-02T09:00:47.369Z,34.63
2019-03-02T09:03:18.270Z,34.53
2019-03-02T09:05:51.820Z,34.47
2019-03-02T09:08:22.180Z,34.73
2019-03-02T09:10:53.068Z,34.63
2019-03-02T09:13:24.389Z,33.80
2019-03-02T09:15:55.504Z,36.10
2019-03-02T09:18:30.732Z,36.87
2019-03-02T09:20:59.141Z,34.43
2019-03-02T09:23:32.797Z,35.23
2019-03-02T09:26:04.452Z,35.90
2019-03-02T09:28:35.667Z,34.83
2019-03-02T09:31:06.547Z,35.07
2019-03-02T09:33:37.472Z,33.60
2019-03-02T09:36:08.661Z,34.00
2019-03-02T09:38:39.648Z,33.73
2019-03-02T09:41:11.682Z,34.70
2019-03-02T09:43:42.746Z,35.00
2019-03-02T09:46:13.786Z,34.63
2019-03-02T09:48:44.917Z,34.60
2019-03-02T09:51:16.241Z,35.43
2019-03-02T09:53:47.063Z,36.27
2019-03-02T09:56:17.852Z,34.60
2019-03-02T09:58:49.053Z,34.10
2019-03-02T10:01:20.324Z,35.23
2019-03-02T10:03:52.298Z,34.00
2019-03-02T10:06:25.289Z,34.97
2019-03-02T10:08:56.019Z,33.83
2019-03-02T10:11:27.132Z,33.07
2019-03-02T10:13:58.181Z,33.70
2019-03-02T10:16:28.990Z,33.80
2019-03-02T10:18:59.983Z,34.60
2019-03-02T10:21:31.094Z,33.37
2019-03-02T10:24:03.200Z,33.53
2019-03-02T10:26:34.068Z,32.77
2019-03-02T10:29:06.820Z,34.40
2019-03-02T10:31:40.539Z,35.67
2019-03-02T10:34:10.508Z,32.63
2019-03-02T10:36:41.711Z,33.23
2019-03-02T10:39:12.600Z,33.87
2019-03-02T10:41:44.039Z,33.00
2019-03-02T10:44:17.816Z,33.27
2019-03-02T10:46:48.376Z,34.07
2019-03-02T10:49:19.831Z,32.63
2019-03-02T10:51:50.631Z,38.17
2019-03-02T10:54:22.954Z,38.70
2019-03-02T10:56:56.677Z,44.30
2019-03-02T10:59:26.567Z,39.23
2019-03-02T11:01:57.780Z,36.63
2019-03-02T11:04:46.379Z,34.27
2019-03-02T11:07:35.419Z,31.93
2019-03-02T11:10:18.123Z,32.00
2019-03-02T11:13:03.791Z,31.07
2019-03-02T11:15:56.625Z,30.77
2019-03-02T11:18:35.799Z,31.27
2019-03-02T11:21:26.349Z,33.17
2019-03-02T11:24:06.434Z,31.50
2019-03-02T11:26:45.060Z,31.37
2019-03-02T11:29:22.769Z,32.00
2019-03-02T11:32:21.768Z,29.10
2019-03-02T11:35:10.461Z,30.80
2019-03-02T11:37:53.951Z,31.93
2019-03-02T11:40:43.532Z,29.07
2019-03-02T11:43:34.265Z,27.77
2019-03-02T11:46:30.841Z,28.00
2019-03-02T11:49:30.148Z,26.93
2019-03-02T11:52:24.049Z,28.97
2019-03-02T11:55:15.380Z,28.27
2019-03-02T11:58:14.391Z,27.17
2019-03-02T12:01:04.354Z,29.37
2019-03-02T12:03:54.463Z,28.80
2019-03-02T12:06:44.034Z,28.53
2019-03-02T12:09:46.630Z,27.67
2019-03-02T12:12:36.677Z,25.73
2019-03-02T12:15:25.222Z,25.47
2019-03-02T12:18:07.484Z,24.67
2019-03-02T12:21:12.813Z,24.40
2019-03-02T12:23:58.761Z,24.70
2019-03-02T12:26:46.343Z,24.80
2019-03-02T12:29:49.646Z,24.93
2019-03-02T12:32:44.352Z,24.70
2019-03-02T12:35:22.127Z,25.97
2019-03-02T12:38:15.041Z,25.57
2019-03-02T12:41:07.788Z,26.20
2019-03-02T12:43:46.224Z,25.20
2019-03-02T12:46:27.760Z,24.60
2019-03-02T12:49:15.831Z,25.03
2019-03-02T12:52:06.103Z,24.20
2019-03-02T12:54:48.023Z,22.33
2019-03-02T12:57:34.675Z,21.80
2019-03-02T13:00:25.344Z,22.27
2019-03-02T13:03:04.423Z,21.23
2019-03-02T13:05:47.459Z,21.93
2019-03-02T13:08:37.769Z,22.20
2019-03-02T13:11:28.925Z,22.67
2019-03-02T13:14:17.278Z,21.43
2019-03-02T13:17:04.625Z,21.60
2019-03-02T13:19:43.677Z,22.30
2019-03-02T13:22:21.025Z,22.67
2019-03-02T13:25:11.145Z,22.67
2019-03-02T13:27:50.308Z,22.77
2019-03-02T13:30:29.558Z,21.60
2019-03-02T13:33:19.295Z,23.10
2019-03-02T13:36:04.635Z,21.80
2019-03-02T13:38:57.369Z,23.30
2019-03-02T13:41:35.787Z,19.33
2019-03-02T13:44:31.701Z,21.23
2019-03-02T13:47:17.357Z,19.97
2019-03-02T13:50:09.993Z,19.50
2019-03-02T13:52:47.161Z,20.67
2019-03-02T13:55:45.931Z,20.03
2019-03-02T13:58:34.569Z,20.57
2019-03-02T14:01:29.404Z,19.67
2019-03-02T14:04:27.980Z,20.77
2019-03-02T14:07:16.588Z,19.77
2019-03-02T14:10:05.352Z,20.07
2019-03-02T14:13:13.460Z,19.20
2019-03-02T14:16:02.849Z,18.37
2019-03-02T14:18:51.109Z,17.13
2019-03-02T14:21:38.701Z,16.60
2019-03-02T14:24:24.136Z,16.27
2019-03-02T14:27:12.776Z,19.00
2019-03-02T14:29:52.658Z,20.33
2019-03-02T14:32:31.362Z,19.23
2019-03-02T14:35:11.734Z,16.83
2019-03-02T14:38:01.177Z,16.93
2019-03-02T14:40:54.087Z,16.57
2019-03-02T14:43:57.206Z,15.93
2019-03-02T14:46:43.903Z,15.47
2019-03-02T14:49:32.926Z,16.37
2019-03-02T14:52:22.848Z,15.60
2019-03-02T14:55:00.001Z,15.67
2019-03-02T14:57:41.742Z,14.90
2019-03-02T15:00:28.800Z,14.30
2019-03-02T15:03:25.059Z,14.70
2019-03-02T15:06:09.255Z,13.77
2019-03-02T15:09:08.798Z,15.20
2019-03-02T15:12:01.666Z,14.47
2019-03-02T15:14:42.552Z,14.83
2019-03-02T15:17:26.142Z,15.07
2019-03-02T15:20:13.642Z,14.43
2019-03-02T15:23:21.506Z,14.40
2019-03-02T15:25:58.062Z,14.63
2019-03-02T15:28:49.880Z,16.40
2019-03-02T15:31:26.528Z,14.97
2019-03-02T15:34:16.405Z,12.87
2019-03-02T15:37:12.402Z,13.87
2019-03-02T15:39:54.980Z,12.90
2019-03-02T15:42:34.681Z,12.17
2019-03-02T15:45:25.103Z,13.67
2019-03-02T15:48:13.732Z,13.40
2019-03-02T15:50:54.516Z,13.73
2019-03-02T15:53:46.529Z,13.77
2019-03-02T15:56:43.805Z,12.27
2019-03-02T15:59:35.964Z,12.20
2019-03-02T16:02:33.523Z,13.00
2019-03-02T16:05:27.435Z,11.33
2019-03-02T16:08:04.714Z,10.93
2019-03-02T16:10:43.601Z,10.63
2019-03-02T16:13:38.011Z,11.47
2019-03-02T16:16:20.996Z,11.00
2019-03-02T16:18:57.516Z,10.10
2019-03-02T16:21:38.753Z,9.07
2019-03-02T16:24:19.959Z,10.27
2019-03-02T16:27:02.216Z,9.93
2019-03-02T16:29:41.969Z,9.63
2019-03-02T16:32:31.963Z,8.53
2019-03-02T16:35:14.244Z,7.90
2019-03-02T16:38:03.762Z,8.07
2019-03-02T16:40:58.207Z,7.77
2019-03-02T16:44:04.550Z,5.30
2019-03-02T16:46:45.811Z,4.70
2019-03-02T16:49:32.188Z,4.50
2019-03-02T16:52:31.593Z,5.07
2019-03-02T16:55:20.501Z,4.93
2019-03-02T16:58:00.139Z,4.90
2019-03-02T17:00:48.644Z,4.57
2019-03-02T17:03:42.385Z,4.77
2019-03-02T17:06:29.728Z,4.20
2019-03-02T17:09:34.628Z,4.93
2019-03-02T17:12:23.690Z,4.50
2019-03-02T17:15:12.303Z,4.40
2019-03-02T17:18:01.001Z,4.50
2019-03-02T17:20:43.380Z,11.20
2019-03-02T17:23:23.972Z,11.93
2019-03-02T17:26:05.051Z,6.70
2019-03-02T17:28:47.594Z,11.40
2019-03-02T17:31:24.003Z,6.77
2019-03-02T17:34:31.844Z,6.10
2019-03-02T17:37:22.673Z,8.33
2019-03-02T17:40:05.737Z,5.10
2019-03-02T17:42:44.921Z,7.57
2019-03-02T17:45:22.179Z,11.10
2019-03-02T17:48:17.047Z,4.63
2019-03-02T17:51:06.869Z,4.33
2019-03-02T17:53:48.816Z,4.70
2019-03-02T17:56:37.079Z,4.10
2019-03-02T17:59:20.927Z,4.17
2019-03-02T18:02:09.750Z,4.00
2019-03-02T18:04:46.682Z,4.90
2019-03-02T18:07:38.568Z,3.00
2019-03-02T18:10:29.447Z,3.10
2019-03-02T18:13:13.526Z,3.60
2019-03-02T18:16:05.678Z,3.37
2019-03-02T18:18:34.022Z,3.27
2019-03-02T18:21:05.500Z,3.30
2019-03-02T18:23:36.713Z,3.07
2019-03-02T18:26:11.120Z,3.23
2019-03-02T18:28:42.076Z,3.90
2019-03-02T18:31:16.153Z,3.17
2019-03-02T18:33:49.537Z,2.50
2019-03-02T18:36:20.479Z,3.23
2019-03-02T18:38:51.823Z,2.90
2019-03-02T18:41:22.946Z,3.00
2019-03-02T18:43:54.232Z,3.00
2019-03-02T18:46:25.102Z,3.00
2019-03-02T18:49:11.530Z,3.20
2019-03-02T18:51:52.799Z,3.30
2019-03-02T18:54:24.159Z,3.13
2019-03-02T18:56:55.190Z,3.33
2019-03-02T18:59:26.050Z,3.23
2019-03-02T19:01:57.012Z,3.10
2019-03-02T19:04:33.693Z,3.10
2019-03-02T19:07:04.966Z,3.30
2019-03-02T19:09:35.830Z,3.37
2019-03-02T19:12:06.715Z,3.30
2019-03-02T19:14:37.506Z,3.30
2019-03-02T19:17:09.478Z,3.90
2019-03-02T19:19:40.344Z,4.10
2019-03-02T19:22:11.325Z,3.50
2019-03-02T19:24:42.503Z,3.70
2019-03-02T19:27:13.879Z,3.30
2019-03-02T19:29:44.894Z,3.20
2019-03-02T19:32:15.695Z,3.40
2019-03-02T19:34:47.932Z,3.13
2019-03-02T19:37:18.962Z,3.07
2019-03-02T19:39:50.048Z,2.70
2019-03-02T19:42:21.145Z,3.70
2019-03-02T19:44:52.002Z,3.03
2019-03-02T19:47:22.866Z,3.60
2019-03-02T19:49:53.889Z,3.57
2019-03-02T19:52:24.767Z,3.30
2019-03-02T19:54:55.787Z,3.00
2019-03-02T19:57:27.054Z,3.30
2019-03-02T19:59:57.841Z,2.47
2019-03-02T20:02:28.636Z,2.60
2019-03-02T20:04:59.509Z,2.70
2019-03-02T20:07:30.678Z,2.87
2019-03-02T20:10:01.766Z,2.90
2019-03-02T20:12:35.156Z,3.00
2019-03-02T20:15:08.317Z,3.03
2019-03-02T20:17:39.225Z,2.93
2019-03-02T20:20:11.739Z,2.97
2019-03-02T20:22:43.285Z,2.77
2019-03-02T20:25:14.781Z,3.33
2019-03-02T20:27:46.937Z,3.40
2019-03-02T20:30:18.683Z,3.30
2019-03-02T20:32:50.938Z,3.20
2019-03-02T20:35:22.590Z,3.03
2019-03-02T20:37:53.692Z,3.17
2019-03-02T20:40:24.743Z,3.10
2019-03-02T20:42:56.013Z,3.30
2019-03-02T20:45:27.055Z,2.90
2019-03-02T20:47:58.298Z,3.30
2019-03-02T20:50:29.081Z,3.00
2019-03-02T20:52:59.947Z,3.40
2019-03-02T20:55:31.062Z,3.67
2019-03-02T20:58:02.081Z,3.60
2019-03-02T21:00:33.247Z,3.73
2019-03-02T21:03:04.598Z,3.10
2019-03-02T21:05:36.162Z,3.73
2019-03-02T21:08:07.226Z,3.40
2019-03-02T21:10:38.101Z,3.57
2019-03-02T21:13:09.040Z,3.57
2019-03-02T21:15:40.612Z,3.90
2019-03-02T21:18:11.534Z,3.27
2019-03-02T21:20:42.615Z,3.07
2019-03-02T21:23:13.564Z,3.67
2019-03-02T21:25:44.989Z,3.40
2019-03-02T21:28:16.260Z,3.33
2019-03-02T21:30:47.342Z,3.50
2019-03-02T21:33:18.453Z,3.67
2019-03-02T21:35:49.301Z,4.20
2019-03-02T21:38:21.167Z,4.40
2019-03-02T21:40:51.948Z,4.17
2019-03-02T21:43:22.754Z,4.70
2019-03-02T21:45:53.663Z,5.07
2019-03-02T21:48:25.146Z,4.83
2019-03-02T21:50:56.298Z,4.10
2019-03-02T21:53:27.722Z,4.30
2019-03-02T21:55:59.054Z,4.10
2019-03-02T21:58:29.939Z,4.57
2019-03-02T22:01:01.018Z,4.63
2019-03-02T22:03:32.603Z,3.93
2019-03-02T22:06:03.490Z,4.30
2019-03-02T22:08:35.675Z,4.00
2019-03-02T22:11:08.841Z,4.03
2019-03-02T22:13:39.643Z,3.93
2019-03-02T22:16:10.911Z,3.83
2019-03-02T22:18:42.274Z,4.40
2019-03-02T22:21:13.547Z,3.90
2019-03-02T22:23:44.594Z,4.20
2019-03-02T22:26:15.608Z,3.70
2019-03-02T22:28:46.655Z,3.83
2019-03-02T22:31:17.517Z,3.90
2019-03-02T22:33:48.407Z,4.30
2019-03-02T22:36:19.177Z,3.80
2019-03-02T22:38:51.179Z,3.80
2019-03-02T22:41:22.034Z,4.00
2019-03-02T22:43:52.905Z,3.90
2019-03-02T22:46:23.703Z,3.90
2019-03-02T22:48:54.724Z,3.70
2019-03-02T22:51:25.510Z,4.50
2019-03-02T22:53:56.671Z,4.23
2019-03-02T22:56:27.471Z,3.93
2019-03-02T22:58:57.774Z,4.37
2019-03-02T23:01:41.104Z,5.30
2019-03-02T23:04:12.462Z,4.70
2019-03-02T23:06:43.417Z,5.00
2019-03-02T23:09:14.635Z,4.30
2019-03-02T23:11:45.559Z,4.33
2019-03-02T23:14:16.501Z,4.57
2019-03-02T23:16:47.356Z,4.30
2019-03-02T23:19:18.277Z,4.40
2019-03-02T23:21:50.051Z,4.60
2019-03-02T23:24:21.199Z,4.10
2019-03-02T23:26:52.689Z,4.43
2019-03-02T23:29:23.602Z,4.23
2019-03-02T23:31:54.455Z,4.80
2019-03-02T23:34:25.573Z,4.23
2019-03-02T23:36:56.350Z,4.27
2019-03-02T23:39:27.562Z,4.27
2019-03-02T23:41:58.672Z,4.10
2019-03-02T23:44:30.765Z,3.70
2019-03-02T23:47:01.516Z,3.80
2019-03-02T23:49:32.790Z,4.10
2019-03-02T23:52:03.648Z,3.73
2019-03-02T23:54:34.967Z,4.10
2019-03-02T23:57:05.887Z,4.40
2019-03-02T23:59:37.420Z,3.97
